Time;durP1;ratioP1;P1;durP2;ratioP2;P2;SDS_P1;SDS_P2;PMS_P1;PMS_P2;Temp;Humidity;BMP_temperature;BMP_pressure;BME280_temperature;BME280_humidity;BME280_pressure;Samples;Min_cycle;Max_cycle;Signal;HPM_P1;HPM_P2
2023/04/21 00:02:19;;;;;;;35.83;23.08;;;;;;;;;;4884142;29;20191;-68
2023/04/21 00:04:45;;;;;;;36.35;22.42;;;;;;;;;;4900126;29;20057;-68
2023/04/21 00:07:13;;;;;;;37.53;21.88;;;;;;;;;;4890159;29;20040;-67
2023/04/21 00:09:40;;;;;;;36.72;21.95;;;;;;;;;;4916962;29;20040;-68
2023/04/21 00:12:06;;;;;;;40.20;22.88;;;;;;;;;;4891789;29;20590;-67
2023/04/21 00:14:32;;;;;;;34.45;20.05;;;;;;;;;;4916510;29;20036;-67
2023/04/21 00:16:59;;;;;;;29.25;20.50;;;;;;;;;;4899470;29;20484;-68
2023/04/21 00:19:25;;;;;;;35.47;20.08;;;;;;;;;;4898457;29;20409;-67
2023/04/21 00:21:57;;;;;;;34.53;20.30;;;;;;;;;;4909785;29;20029;-66
2023/04/21 00:24:23;;;;;;;29.73;19.58;;;;;;;;;;4869354;29;20103;-67
2023/04/21 00:26:50;;;;;;;30.42;19.65;;;;;;;;;;4885038;29;20049;-67
2023/04/21 00:29:16;;;;;;;35.55;20.23;;;;;;;;;;4915113;29;20123;-67
2023/04/21 00:31:42;;;;;;;31.38;20.33;;;;;;;;;;4916083;29;20036;-67
2023/04/21 00:34:08;;;;;;;31.38;19.60;;;;;;;;;;4882569;29;20185;-67
2023/04/21 00:36:34;;;;;;;38.72;20.08;;;;;;;;;;4892033;29;20039;-67
2023/04/21 00:39:00;;;;;;;29.52;19.48;;;;;;;;;;4889767;29;20060;-67
2023/04/21 00:41:28;;;;;;;34.88;20.10;;;;;;;;;;4890867;29;20051;-67
2023/04/21 00:44:04;;;;;;;31.73;19.52;;;;;;;;;;4899121;29;20036;-67
2023/04/21 00:46:30;;;;;;;31.02;18.98;;;;;;;;;;4898906;29;20043;-67
2023/04/21 00:48:57;;;;;;;33.97;18.85;;;8.90;99.90;;;;;;4892695;29;20048;-67
2023/04/21 00:51:23;;;;;;;30.92;18.17;;;;;;;;;;4867171;29;20048;-68
2023/04/21 00:53:50;;;;;;;31.10;19.48;;;8.90;99.90;;;;;;4907585;29;20032;-68
2023/04/21 00:56:17;;;;;;;29.38;17.90;;;;;;;;;;4883708;29;20056;-68
2023/04/21 00:58:45;;;;;;;28.95;17.92;;;8.70;99.90;;;;;;4880778;29;20057;-68
2023/04/21 01:01:11;;;;;;;27.65;17.67;;;;;;;;;;4882620;29;20123;-68
2023/04/21 01:03:37;;;;;;;31.20;18.05;;;;;;;;;;4892884;29;20651;-68
2023/04/21 01:06:03;;;;;;;30.75;17.73;;;;;;;;;;4899011;29;20039;-68
2023/04/21 01:08:29;;;;;;;30.20;17.95;;;;;;;;;;4883593;29;20052;-68
2023/04/21 01:10:56;;;;;;;31.73;17.83;;;;;;;;;;4887204;29;20497;-68
2023/04/21 01:13:22;;;;;;;31.05;17.75;;;;;;;;;;4893006;29;20049;-68
2023/04/21 01:15:48;;;;;;;27.45;17.80;;;;;;;;;;4889791;29;20074;-68
2023/04/21 01:18:16;;;;;;;30.92;17.75;;;;;;;;;;4869838;29;20053;-67
2023/04/21 01:20:43;;;;;;;33.35;18.08;;;;;;;;;;4858537;29;20080;-68
2023/04/21 01:23:09;;;;;;;29.02;17.13;;;;;;;;;;4882079;29;20059;-67
2023/04/21 01:25:36;;;;;;;28.63;17.08;;;;;;;;;;4881304;29;20104;-67
2023/04/21 01:28:02;;;;;;;33.70;18.20;;;;;;;;;;4881857;29;20154;-67
2023/04/21 01:30:28;;;;;;;29.73;18.10;;;;;;;;;;4892989;29;20044;-68
2023/04/21 01:32:54;;;;;;;29.38;18.60;;;;;;;;;;4913928;29;20489;-67
2023/04/21 01:35:20;;;;;;;31.00;18.33;;;;;;;;;;4898626;29;20067;-67
2023/04/21 01:37:46;;;;;;;29.63;17.98;;;;;;;;;;4906380;29;20053;-68
2023/04/21 01:40:12;;;;;;;30.95;18.75;;;;;;;;;;4882269;29;20036;-68
2023/04/21 01:42:42;;;;;;;31.92;17.65;;;8.50;99.90;;;;;;4885672;29;20087;-68
2023/04/21 01:45:08;;;;;;;32.25;18.02;;;9.00;99.90;;;;;;4881324;29;20051;-67
2023/04/21 01:47:34;;;;;;;29.70;17.83;;;;;;;;;;4885635;29;20051;-67
2023/04/21 01:50:00;;;;;;;32.30;18.20;;;;;;;;;;4896890;29;20036;-68
2023/04/21 01:52:27;;;;;;;31.85;19.70;;;;;;;;;;4913660;29;20175;-68
2023/04/21 01:54:53;;;;;;;29.65;16.92;;;;;;;;;;4915256;29;20388;-67
2023/04/21 01:57:19;;;;;;;32.08;19.00;;;;;;;;;;4869003;29;20051;-67
2023/04/21 01:59:45;;;;;;;29.60;17.88;;;8.60;99.90;;;;;;4850437;29;20131;-68
2023/04/21 02:02:11;;;;;;;28.00;18.27;;;;;;;;;;4889489;29;20127;-68
2023/04/21 02:04:37;;;;;;;32.65;18.65;;;;;;;;;;4898031;29;20097;-68
2023/04/21 02:07:03;;;;;;;31.75;18.05;;;;;;;;;;4882309;29;20041;-68
2023/04/21 02:09:30;;;;;;;29.25;18.70;;;;;;;;;;4874887;29;20047;-68
2023/04/21 02:11:56;;;;;;;33.05;18.75;;;;;;;;;;4891416;29;20383;-67
2023/04/21 02:14:22;;;;;;;31.25;18.83;;;;;;;;;;4885897;29;20556;-68
2023/04/21 02:16:48;;;;;;;33.63;18.25;;;;;;;;;;4898352;29;20044;-67
2023/04/21 02:19:14;;;;;;;31.83;17.70;;;;;;;;;;4887912;29;20137;-68
2023/04/21 02:21:40;;;;;;;31.23;18.08;;;;;;;;;;4871266;29;20055;-68
2023/04/21 02:24:06;;;;;;;32.45;19.23;;;;;;;;;;4880969;29;20370;-68
2023/04/21 02:26:33;;;;;;;36.40;17.55;;;;;;;;;;4889370;29;20059;-68
2023/04/21 02:28:59;;;;;;;33.35;17.42;;;;;;;;;;4897896;29;20040;-67
2023/04/21 02:31:25;;;;;;;34.05;17.92;;;;;;;;;;4881034;29;20400;-67
2023/04/21 02:33:51;;;;;;;29.52;17.08;;;;;;;;;;4897806;29;20076;-67
2023/04/21 02:36:17;;;;;;;32.50;17.35;;;;;;;;;;4881226;29;20040;-68
2023/04/21 02:38:43;;;;;;;28.50;16.70;;;;;;;;;;4901350;29;20111;-67
2023/04/21 02:41:09;;;;;;;29.92;18.67;;;;;;;;;;4884193;29;20067;-68
2023/04/21 02:43:35;;;;;;;32.25;17.35;;;;;;;;;;4892058;29;20036;-68
2023/04/21 02:46:07;;;;;;;31.08;17.40;;;8.30;99.90;;;;;;4869015;29;20072;-68
2023/04/21 02:48:34;;;;;;;28.73;17.80;;;;;;;;;;4917932;29;20115;-68
2023/04/21 02:51:00;;;;;;;31.02;17.48;;;;;;;;;;4889108;29;20549;-68
2023/04/21 02:53:26;;;;;;;29.50;17.20;;;;;;;;;;4898775;29;20381;-68
2023/04/21 02:55:52;;;;;;;33.70;17.77;;;;;;;;;;4888611;29;20127;-67
2023/04/21 02:58:18;;;;;;;31.65;18.67;;;;;;;;;;4918166;29;20056;-67
2023/04/21 03:00:44;;;;;;;33.35;18.58;;;;;;;;;;4896872;29;20052;-67
2023/04/21 03:03:10;;;;;;;31.98;17.83;;;;;;;;;;4884600;29;20404;-67
2023/04/21 03:05:36;;;;;;;28.88;17.70;;;;;;;;;;4889825;29;20040;-68
2023/04/21 03:08:02;;;;;;;30.63;17.73;;;;;;;;;;4918015;29;20048;-67
2023/04/21 03:10:29;;;;;;;30.55;18.23;;;;;;;;;;4891014;29;20045;-68
2023/04/21 03:12:55;;;;;;;32.53;17.65;;;;;;;;;;4898333;29;20057;-68
2023/04/21 03:15:21;;;;;;;24.73;18.05;;;;;;;;;;4869785;29;20083;-68
2023/04/21 03:17:47;;;;;;;31.90;18.20;;;;;;;;;;4884189;29;20383;-68
2023/04/21 03:20:14;;;;;;;30.02;18.23;;;;;;;;;;4884138;29;20049;-68
2023/04/21 03:22:40;;;;;;;27.13;18.23;;;;;;;;;;4900722;29;20044;-68
2023/04/21 03:25:07;;;;;;;34.35;19.33;;;;;;;;;;4883841;29;20108;-68
2023/04/21 03:27:33;;;;;;;30.65;19.25;;;;;;;;;;4884619;29;20040;-68
2023/04/21 03:29:59;;;;;;;32.47;18.70;;;;;;;;;;4900757;29;20051;-68
2023/04/21 03:32:25;;;;;;;30.35;18.10;;;;;;;;;;4900813;29;20095;-68
2023/04/21 03:34:51;;;;;;;33.00;20.60;;;;;;;;;;4907807;29;20043;-68
2023/04/21 03:37:17;;;;;;;29.92;18.85;;;;;;;;;;4887710;29;20036;-68
2023/04/21 03:39:43;;;;;;;37.00;19.00;;;;;;;;;;4883769;29;20100;-68
2023/04/21 03:42:09;;;;;;;32.63;19.40;;;;;;;;;;4883401;29;20508;-68
2023/04/21 03:44:35;;;;;;;33.78;20.02;;;;;;;;;;4900343;29;20153;-68
2023/04/21 03:47:04;;;;;;;33.28;19.85;;;;;;;;;;4897595;29;20040;-68
2023/04/21 03:49:33;;;;;;;32.58;19.25;;;;;;;;;;4916684;29;20493;-68
2023/04/21 03:51:59;;;;;;;33.35;19.60;;;;;;;;;;4900437;29;20038;-68
2023/04/21 03:54:25;;;;;;;27.92;18.38;;;;;;;;;;4900307;29;20248;-67
2023/04/21 03:56:51;;;;;;;30.52;20.13;;;;;;;;;;4888104;29;20125;-68
2023/04/21 03:59:17;;;;;;;32.70;18.80;;;;;;;;;;4895678;29;20107;-67
2023/04/21 04:01:43;;;;;;;31.80;19.42;;;8.90;99.90;;;;;;4899954;29;20516;-68
2023/04/21 04:04:08;;;;;;;37.55;20.00;;;7.60;99.90;;;;;;4900078;29;20040;-68
2023/04/21 04:06:34;;;;;;;34.15;19.27;;;;;;;;;;4893425;29;20044;-68
2023/04/21 04:09:04;;;;;;;30.40;18.85;;;;;;;;;;4894628;29;20107;-68
2023/04/21 04:11:30;;;;;;;30.02;20.27;;;8.10;99.90;;;;;;4884394;29;20092;-67
2023/04/21 04:13:57;;;;;;;31.98;19.45;;;;;;;;;;4867547;29;20048;-67
2023/04/21 04:16:23;;;;;;;32.15;18.67;;;;;;;;;;4900672;29;20058;-67
2023/04/21 04:18:49;;;;;;;31.25;18.42;;;;;;;;;;4896582;29;20052;-67
2023/04/21 04:21:15;;;;;;;30.48;18.23;;;;;;;;;;4896904;29;20048;-68
2023/04/21 04:23:43;;;;;;;31.35;18.65;;;;;;;;;;4899921;29;20091;-68
2023/04/21 04:26:10;;;;;;;26.45;17.00;;;;;;;;;;4897796;29;20071;-68
2023/04/21 04:28:36;;;;;;;33.47;16.52;;;;;;;;;;4867617;29;20059;-67
2023/04/21 04:31:02;;;;;;;31.52;16.80;;;;;;;;;;4882611;29;20488;-68
2023/04/21 04:33:28;;;;;;;28.33;16.70;;;;;;;;;;4884920;29;20051;-68
2023/04/21 04:35:54;;;;;;;31.58;16.85;;;;;;;;;;4895715;29;20537;-68
2023/04/21 04:38:21;;;;;;;29.20;16.23;;;;;;;;;;4913338;29;20043;-67
2023/04/21 04:40:54;;;;;;;26.70;15.98;;;7.90;99.90;;;;;;4890530;29;20040;-68
2023/04/21 04:43:20;;;;;;;21.63;16.02;;;;;;;;;;4899867;29;20040;-68
2023/04/21 04:45:47;;;;;;;23.73;15.63;;;;;;;;;;4914856;29;20044;-68
2023/04/21 04:48:13;;;;;;;26.20;15.27;;;;;;;;;;4899062;29;20035;-68
2023/04/21 04:50:39;;;;;;;31.52;16.48;;;;;;;;;;4898500;29;20048;-67
2023/04/21 04:53:05;;;;;;;31.23;15.98;;;;;;;;;;4904507;29;20039;-68
2023/04/21 04:55:31;;;;;;;29.92;16.35;;;8.00;99.90;;;;;;4883520;29;20045;-68
2023/04/21 04:57:57;;;;;;;26.75;15.65;;;;;;;;;;4891229;29;20052;-68
2023/04/21 05:00:24;;;;;;;30.55;16.70;;;;;;;;;;4893145;29;20054;-68
2023/04/21 05:02:50;;;;;;;26.42;15.98;;;;;;;;;;4891054;29;20044;-67
2023/04/21 05:05:16;;;;;;;26.88;16.30;;;;;;;;;;4897345;29;20477;-67
2023/04/21 05:07:42;;;;;;;26.10;16.55;;;;;;;;;;4895070;29;20036;-68
2023/04/21 05:10:08;;;;;;;22.90;15.10;;;;;;;;;;4889175;29;20052;-67
2023/04/21 05:12:34;;;;;;;29.98;15.85;;;;;;;;;;4890182;29;20061;-68
2023/04/21 05:15:00;;;;;;;23.75;14.88;;;;;;;;;;4881992;29;20076;-68
2023/04/21 05:17:27;;;;;;;28.23;15.15;;;;;;;;;;4881739;29;20528;-68
2023/04/21 05:19:53;;;;;;;27.67;15.88;;;;;;;;;;4897825;29;20036;-68
2023/04/21 05:22:19;;;;;;;29.27;15.27;;;;;;;;;;4911215;29;20033;-67
2023/04/21 05:24:45;;;;;;;23.63;14.95;;;;;;;;;;4892700;29;20139;-67
2023/04/21 05:27:11;;;;;;;28.30;14.75;;;;;;;;;;4898943;29;20056;-67
2023/04/21 05:29:37;;;;;;;28.60;15.32;;;;;;;;;;4883628;29;20056;-67
2023/04/21 05:32:04;;;;;;;25.50;15.18;;;;;;;;;;4892144;29;20037;-68
2023/04/21 05:34:30;;;;;;;26.05;14.48;;;;;;;;;;4866556;29;20457;-68
2023/04/21 05:36:56;;;;;;;18.95;13.90;;;;;;;;;;4855414;29;20080;-69
2023/04/21 05:39:22;;;;;;;25.45;14.75;;;;;;;;;;4862962;29;20375;-69
2023/04/21 05:41:48;;;;;;;30.80;15.77;;;;;;;;;;4863177;29;20056;-69
2023/04/21 05:44:17;;;;;;;26.70;14.15;;;8.70;99.90;;;;;;4879619;29;20112;-75
2023/04/21 05:46:43;;;;;;;26.95;14.30;;;;;;;;;;4863230;29;20077;-70
2023/04/21 05:49:09;;;;;;;22.70;14.02;;;;;;;;;;4890758;29;20048;-69
2023/04/21 05:51:35;;;;;;;22.30;14.00;;;;;;;;;;4881470;29;20051;-68
2023/04/21 05:54:01;;;;;;;21.38;13.73;;;;;;;;;;4881511;29;20515;-69
2023/04/21 05:56:27;;;;;;;28.52;13.85;;;;;;;;;;4873701;29;20040;-68
2023/04/21 05:58:53;;;;;;;22.80;13.73;;;;;;;;;;4904160;29;20036;-68
2023/04/21 06:01:20;;;;;;;27.38;13.77;;;;;;;;;;4887008;29;20367;-68
2023/04/21 06:03:48;;;;;;;32.90;14.38;;;;;;;;;;4897088;29;20096;-68
2023/04/21 06:06:15;;;;;;;26.63;13.93;;;;;;;;;;4890854;29;20053;-68
2023/04/21 06:08:41;;;;;;;27.02;13.55;;;;;;;;;;4897872;29;20036;-69
2023/04/21 06:11:07;;;;;;;26.00;13.18;;;;;;;;;;4865562;29;20048;-69
2023/04/21 06:13:33;;;;;;;26.70;13.95;;;;;;;;;;4881172;29;20045;-69
2023/04/21 06:15:59;;;;;;;20.95;13.35;;;;;;;;;;4869706;29;20488;-69
2023/04/21 06:18:28;;;;;;;27.80;14.90;;;;;;;;;;4896706;29;20044;-69
2023/04/21 06:20:55;;;;;;;21.98;13.25;;;;;;;;;;4882474;29;20529;-69
2023/04/21 06:23:21;;;;;;;27.80;13.82;;;;;;;;;;4914989;29;20037;-69
2023/04/21 06:25:47;;;;;;;22.85;13.40;;;;;;;;;;4895678;29;20048;-69
2023/04/21 06:28:13;;;;;;;21.65;13.02;;;;;;;;;;4881329;29;20095;-67
2023/04/21 06:30:39;;;;;;;26.45;12.80;;;;;;;;;;4894782;29;20048;-67
2023/04/21 06:33:06;;;;;;;25.95;12.55;;;;;;;;;;4895489;29;20083;-68
2023/04/21 06:35:32;;;;;;;29.77;13.75;;;;;;;;;;4888334;29;20081;-67
2023/04/21 06:37:58;;;;;;;20.60;12.40;;;;;;;;;;4899589;29;20086;-67
2023/04/21 06:40:24;;;;;;;22.27;13.30;;;;;;;;;;4870455;29;20037;-67
2023/04/21 06:42:50;;;;;;;28.05;14.68;;;;;;;;;;4880877;29;20085;-67
2023/04/21 06:45:16;;;;;;;23.55;12.90;;;;;;;;;;4881057;29;20131;-67
2023/04/21 06:47:42;;;;;;;26.08;12.98;;;;;;;;;;4881126;29;20051;-67
2023/04/21 06:50:08;;;;;;;30.10;13.65;;;10.20;99.90;;;;;;4881157;29;20126;-67
2023/04/21 06:52:34;;;;;;;21.48;12.75;;;;;;;;;;4894576;29;20524;-67
2023/04/21 06:55:00;;;;;;;21.88;12.18;;;;;;;;;;4865559;29;20486;-68
2023/04/21 06:57:26;;;;;;;26.55;13.73;;;;;;;;;;4903020;29;20115;-68
2023/04/21 06:59:53;;;;;;;25.50;13.07;;;;;;;;;;4873271;29;20157;-68
2023/04/21 07:02:19;;;;;;;24.38;12.82;;;;;;;;;;4872344;29;20051;-68
2023/04/21 07:04:45;;;;;;;23.38;13.40;;;;;;;;;;4878990;29;20044;-68
2023/04/21 07:07:13;;;;;;;22.70;12.57;;;;;;;;;;4891558;29;20051;-68
2023/04/21 07:09:39;;;;;;;21.00;12.70;;;;;;;;;;4890573;29;20082;-68
2023/04/21 07:12:05;;;;;;;22.45;12.13;;;;;;;;;;4890685;29;20472;-67
2023/04/21 07:14:31;;;;;;;20.85;13.10;;;;;;;;;;4889971;29;20044;-67
2023/04/21 07:16:58;;;;;;;28.02;12.27;;;;;;;;;;4907449;29;20062;-67
2023/04/21 07:19:24;;;;;;;22.52;12.18;;;;;;;;;;4906793;29;20044;-67
2023/04/21 07:21:50;;;;;;;23.38;13.40;;;;;;;;;;4889748;29;20044;-67
2023/04/21 07:24:16;;;;;;;29.48;13.93;;;;;;;;;;4889988;29;20036;-67
2023/04/21 07:26:42;;;;;;;26.00;13.30;;;;;;;;;;4910029;29;20036;-67
2023/04/21 07:29:08;;;;;;;24.55;12.60;;;;;;;;;;4892727;29;20083;-67
2023/04/21 07:31:35;;;;;;;25.30;12.90;;;;;;;;;;4894709;29;20047;-72
2023/04/21 07:34:00;;;;;;;28.52;12.73;;;10.50;99.90;;;;;;4901020;29;20083;-69
2023/04/21 07:36:27;;;;;;;21.52;14.50;;;11.10;99.90;;;;;;4871662;29;20472;-68
2023/04/21 07:38:53;;;;;;;27.33;14.05;;;;;;;;;;4884788;29;20164;-68
2023/04/21 07:41:19;;;;;;;22.33;12.77;;;;;;;;;;4912971;29;20028;-68
2023/04/21 07:43:45;;;;;;;20.15;13.10;;;;;;;;;;4900832;29;20520;-67
2023/04/21 07:46:12;;;;;;;27.10;12.80;;;;;;;;;;4916066;29;20047;-68
2023/04/21 07:48:39;;;;;;;26.05;12.75;;;11.10;99.90;;;;;;4900224;29;20150;-71
2023/04/21 07:51:05;;;;;;;29.02;12.20;;;;;;;;;;4892277;29;20120;-68
2023/04/21 07:53:31;;;;;;;21.65;13.35;;;;;;;;;;4883424;29;20191;-68
2023/04/21 07:55:57;;;;;;;23.15;13.02;;;;;;;;;;4887963;29;20047;-68
2023/04/21 07:58:23;;;;;;;22.48;12.63;;;;;;;;;;4889886;29;20490;-68
2023/04/21 08:00:50;;;;;;;22.83;12.23;;;;;;;;;;4903092;29;20132;-69
2023/04/21 08:03:16;;;;;;;26.33;12.93;;;;;;;;;;4873869;29;20123;-68
2023/04/21 08:05:42;;;;;;;24.77;13.52;;;;;;;;;;4907803;29;20045;-68
2023/04/21 08:08:08;;;;;;;25.65;13.27;;;;;;;;;;4883273;29;20486;-68
2023/04/21 08:10:34;;;;;;;23.52;13.00;;;;;;;;;;4883160;29;20044;-68
2023/04/21 08:13:02;;;;;;;20.50;12.20;;;;;;;;;;4883007;29;20056;-68
2023/04/21 08:15:28;;;;;;;23.10;13.63;;;;;;;;;;4883246;29;20127;-68
2023/04/21 08:17:54;;;;;;;26.27;13.50;;;;;;;;;;4883025;29;20044;-68
2023/04/21 08:20:20;;;;;;;23.80;12.95;;;;;;;;;;4891267;29;20099;-68
2023/04/21 08:22:46;;;;;;;23.10;12.48;;;;;;;;;;4894009;29;20485;-68
2023/04/21 08:25:12;;;;;;;20.42;12.98;;;;;;;;;;4915073;29;20560;-68
2023/04/21 08:27:38;;;;;;;22.92;12.57;;;;;;;;;;4898773;29;20076;-68
2023/04/21 08:30:05;;;;;;;25.67;12.95;;;;;;;;;;4889160;29;20226;-68
2023/04/21 08:32:31;;;;;;;22.92;12.90;;;;;;;;;;4899927;29;20393;-67
2023/04/21 08:34:57;;;;;;;24.77;13.25;;;;;;;;;;4914483;29;20043;-68
2023/04/21 08:37:23;;;;;;;21.05;13.07;;;;;;;;;;4899853;29;20087;-68
2023/04/21 08:39:49;;;;;;;28.48;12.90;;;;;;;;;;4888887;29;20105;-68
2023/04/21 08:42:16;;;;;;;25.55;13.35;;;;;;;;;;4904148;29;20040;-68
2023/04/21 08:44:43;;;;;;;24.83;12.25;;;;;;;;;;4887238;29;20041;-68
2023/04/21 08:47:13;;;;;;;21.50;12.52;;;;;;;;;;4915285;29;20043;-68
2023/04/21 08:49:41;;;;;;;24.52;12.63;;;13.60;99.90;;;;;;4915195;29;20044;-68
2023/04/21 08:52:07;;;;;;;22.70;12.65;;;;;;;;;;4887147;29;20048;-68
2023/04/21 08:54:37;;;;;;;18.75;11.98;;;;;;;;;;4896856;29;20111;-68
2023/04/21 08:57:04;;;;;;;18.70;12.10;;;;;;;;;;4903870;29;20096;-68
2023/04/21 08:59:30;;;;;;;23.60;12.38;;;;;;;;;;4869883;29;20389;-69
2023/04/21 09:02:17;;;;;;;26.48;12.18;;;13.20;99.90;;;;;;4890949;29;20046;-67
2023/04/21 09:04:50;;;;;;;25.52;12.40;;;13.40;99.90;;;;;;4893162;29;20055;-67
2023/04/21 09:07:32;;;;;;;26.27;12.98;;;;;;;;;;4883738;29;20402;-67
2023/04/21 09:09:59;;;;;;;23.70;12.45;;;;;;;;;;4883150;29;20040;-67
2023/04/21 09:12:26;;;;;;;20.80;10.95;;;13.70;99.90;;;;;;4874258;29;20060;-67
2023/04/21 09:14:52;;;;;;;22.17;11.60;;;;;;;;;;4884212;29;20374;-67
2023/04/21 09:17:22;;;;;;;22.10;12.27;;;13.70;99.90;;;;;;4876510;29;20044;-67
2023/04/21 09:19:48;;;;;;;23.17;11.90;;;;;;;;;;4881745;29;20111;-68
2023/04/21 09:22:16;;;;;;;19.60;11.40;;;;;;;;;;4892850;29;20071;-67
2023/04/21 09:24:46;;;;;;;19.67;11.60;;;14.10;99.90;;;;;;4885607;29;20064;-67
2023/04/21 09:27:12;;;;;;;20.40;12.10;;;;;;;;;;4886112;29;20040;-69
2023/04/21 09:29:38;;;;;;;21.98;12.23;;;;;;;;;;4893199;29;20049;-67
2023/04/21 09:32:04;;;;;;;20.10;11.52;;;;;;;;;;4888834;29;20051;-67
2023/04/21 09:34:33;;;;;;;21.25;11.63;;;;;;;;;;4881632;29;20048;-67
2023/04/21 09:37:00;;;;;;;22.35;12.40;;;14.50;99.90;;;;;;4884983;29;20040;-67
2023/04/21 09:39:26;;;;;;;27.35;12.40;;;;;;;;;;4913264;29;20486;-67
2023/04/21 09:41:52;;;;;;;23.48;11.43;;;;;;;;;;4877983;29;20044;-67
2023/04/21 09:44:19;;;;;;;20.48;11.57;;;;;;;;;;4907337;29;20078;-67
2023/04/21 09:46:50;;;;;;;23.55;11.25;;;14.80;99.90;;;;;;4884244;29;20051;-68
2023/04/21 09:49:17;;;;;;;21.00;11.38;;;;;;;;;;4898370;29;20060;-68
2023/04/21 09:51:43;;;;;;;22.95;11.82;;;;;;;;;;4883789;29;20052;-68
2023/04/21 09:54:16;;;;;;;20.83;11.18;;;15.20;99.90;;;;;;4895796;29;20120;-68
2023/04/21 09:56:43;;;;;;;23.30;12.13;;;15.20;99.90;;;;;;4912486;29;20055;-68
2023/04/21 09:59:16;;;;;;;20.35;12.02;;;15.10;99.90;;;;;;4900242;29;20040;-67
2023/04/21 10:01:43;;;;;;;21.30;11.95;;;15.30;99.90;;;;;;4878965;29;20040;-68
2023/04/21 10:04:09;;;;;;;22.98;12.13;;;;;;;;;;4896544;29;20389;-68
2023/04/21 10:06:35;;;;;;;20.42;11.57;;;;;;;;;;4911188;29;20095;-68
2023/04/21 10:09:04;;;;;;;30.63;11.35;;;15.10;99.90;;;;;;4888364;29;20087;-67
2023/04/21 10:11:33;;;;;;;19.55;11.00;;;;;;;;;;4893916;29;20044;-68
2023/04/21 10:13:59;;;;;;;20.45;11.52;;;16.00;99.90;;;;;;4910323;29;20103;-67
2023/04/21 10:16:25;;;;;;;28.27;11.55;;;15.40;99.90;;;;;;4881302;29;20048;-67
2023/04/21 10:18:52;;;;;;;19.45;11.27;;;;;;;;;;4866101;29;20045;-68
2023/04/21 10:21:20;;;;;;;23.63;10.88;;;15.60;99.90;;;;;;4897172;29;20075;-68
2023/04/21 10:23:53;;;;;;;20.75;11.27;;;14.70;99.90;;;;;;4900346;29;20476;-68
2023/04/21 10:26:23;;;;;;;23.90;11.30;;;;;;;;;;4901547;29;20045;-68
2023/04/21 10:28:56;;;;;;;24.63;11.57;;;15.80;99.90;;;;;;4894380;29;20055;-68
2023/04/21 10:31:22;;;;;;;19.08;11.00;;;;;;;;;;4869326;29;20100;-69
2023/04/21 10:34:12;;;;;;;21.52;11.25;;;15.50;99.90;;;;;;4881187;29;20059;-69
2023/04/21 10:36:44;;;;;;;23.17;11.23;;;16.40;99.90;;;;;;4881215;29;20489;-69
2023/04/21 10:39:12;;;;;;;21.10;11.07;;;;;;;;;;4897894;29;20051;-67
2023/04/21 10:41:38;;;;;;;19.70;10.40;;;;;;;;;;4883216;29;20090;-67
2023/04/21 10:44:13;;;;;;;21.08;11.48;;;15.70;99.90;;;;;;4874845;29;20040;-67
2023/04/21 10:46:50;;;;;;;20.58;10.85;;;;;;;;;;4900972;29;20450;-67
2023/04/21 10:49:29;;;;;;;18.50;10.55;;;16.90;99.90;;;;;;4896937;29;20064;-67
2023/04/21 10:52:04;;;;;;;19.58;10.80;;;16.70;99.90;;;;;;4873083;29;20084;-68
2023/04/21 10:54:55;;;;;;;21.65;10.43;;;16.00;99.90;;;;;;4881387;29;20075;-68
2023/04/21 10:57:21;;;;;;;17.50;10.63;;;;;;;;;;4872975;29;20112;-68
2023/04/21 10:59:50;;;;;;;18.38;10.90;;;16.10;99.90;;;;;;4872886;29;20489;-67
2023/04/21 11:02:17;;;;;;;20.50;10.68;;;17.40;99.90;;;;;;4889343;29;20056;-67
2023/04/21 11:04:46;;;;;;;20.50;11.43;;;17.60;99.90;;;;;;4880378;29;20154;-67
2023/04/21 11:07:20;;;;;;;16.05;11.00;;;16.50;99.90;;;;;;4902576;29;20157;-67
2023/04/21 11:09:55;;;;;;;18.38;10.10;;;17.20;99.90;;;;;;4904439;29;20059;-68
2023/04/21 11:12:20;;;;;;;21.55;10.63;;;17.00;99.90;;;;;;4885796;29;20055;-68
2023/04/21 11:14:50;;;;;;;19.90;11.68;;;16.60;99.90;;;;;;4884512;29;20119;-68
2023/04/21 11:17:18;;;;;;;23.35;11.38;;;17.50;99.90;;;;;;4898308;29;20052;-69
2023/04/21 11:19:52;;;;;;;21.80;11.80;;;17.10;99.90;;;;;;4898236;29;20062;-68
2023/04/21 11:22:18;;;;;;;21.65;10.68;;;;;;;;;;4901349;29;20052;-69
2023/04/21 11:24:45;;;;;;;21.27;11.45;;;17.20;99.90;;;;;;4900010;29;20124;-67
2023/04/21 11:27:13;;;;;;;18.88;11.30;;;;;;;;;;4884281;29;20124;-68
2023/04/21 11:29:39;;;;;;;19.40;12.05;;;;;;;;;;4883629;29;20123;-68
2023/04/21 11:32:06;;;;;;;18.20;11.25;;;;;;;;;;4873119;29;20053;-68
2023/04/21 11:34:32;;;;;;;17.13;11.68;;;;;;;;;;4895799;29;20048;-68
2023/04/21 11:36:58;;;;;;;16.25;11.00;;;;;;;;;;4883910;29;20106;-68
2023/04/21 11:39:24;;;;;;;19.23;10.52;;;;;;;;;;4915959;29;20044;-68
2023/04/21 11:41:51;;;;;;;19.17;11.43;;;18.40;99.90;;;;;;4884957;29;20049;-67
2023/04/21 11:44:30;;;;;;;21.30;10.75;;;;;;;;;;4884012;29;20048;-67
2023/04/21 11:46:56;;;;;;;24.95;11.23;;;19.00;99.90;;;;;;4883711;29;20135;-68
2023/04/21 11:49:26;;;;;;;14.70;10.15;;;18.50;99.90;;;;;;4900210;29;20390;-68
2023/04/21 11:51:52;;;;;;;20.20;11.35;;;;;;;;;;4890301;29;20057;-68
2023/04/21 11:54:20;;;;;;;22.65;11.55;;;18.30;99.90;;;;;;4885234;29;20048;-68
2023/04/21 11:56:47;;;;;;;16.83;9.93;;;18.50;99.90;;;;;;4889853;29;20044;-68
2023/04/21 11:59:15;;;;;;;18.40;9.48;;;18.40;99.90;;;;;;4919241;29;20393;-68
2023/04/21 12:01:44;;;;;;;18.90;9.85;;;19.20;99.90;;;;;;4886566;29;20390;-67
2023/04/21 12:04:19;;;;;;;17.95;9.45;;;18.40;99.90;;;;;;4880060;29;20040;-68
2023/04/21 12:06:46;;;;;;;25.63;9.85;;;19.60;99.90;;;;;;4888765;29;20084;-67
2023/04/21 12:09:19;;;;;;;17.23;9.50;;;19.30;99.90;;;;;;4901933;29;20059;-67
2023/04/21 12:11:49;;;;;;;21.02;9.82;;;19.20;99.90;;;;;;4886345;29;20047;-67
2023/04/21 12:14:20;;;;;;;25.02;10.27;;;18.90;99.90;;;;;;4895975;29;20421;-67
2023/04/21 12:16:57;;;;;;;20.85;9.00;;;19.80;99.90;;;;;;4886616;29;20060;-67
2023/04/21 12:19:23;;;;;;;15.00;9.10;;;;;;;;;;4883182;29;20091;-67
2023/04/21 12:21:54;;;;;;;15.63;9.00;;;19.60;99.90;;;;;;4867596;29;20045;-66
2023/04/21 12:24:20;;;;;;;20.85;8.88;;;19.00;99.90;;;;;;4915913;29;20143;-67
2023/04/21 12:26:45;;;;;;;16.40;8.75;;;18.50;99.90;;;;;;4897438;29;20442;-67
2023/04/21 12:29:12;;;;;;;16.98;9.57;;;;;;;;;;4896541;29;20040;-67
2023/04/21 12:31:37;;;;;;;19.27;9.50;;;19.70;99.90;;;;;;4888615;29;20385;-68
2023/04/21 12:34:03;;;;;;;15.45;8.93;;;18.20;99.90;;;;;;4883096;29;20044;-68
2023/04/21 12:36:29;;;;;;;18.33;9.05;;;19.20;99.90;;;;;;4889548;29;20060;-68
2023/04/21 12:38:55;;;;;;;15.15;8.38;;;19.80;99.90;;;;;;4882843;29;20048;-68
2023/04/21 12:41:21;;;;;;;12.43;7.80;;;;;;;;;;4904508;29;20154;-68
2023/04/21 12:43:47;;;;;;;16.65;8.05;;;19.90;99.90;;;;;;4882858;29;20048;-68
2023/04/21 12:46:13;;;;;;;13.88;8.00;;;;;;;;;;4851805;29;20084;-68
2023/04/21 12:48:39;;;;;;;18.05;7.50;;;18.40;99.90;;;;;;4899545;29;20048;-69
2023/04/21 12:51:05;;;;;;;14.00;7.53;;;18.40;99.90;;;;;;4868065;29;20051;-68
2023/04/21 12:53:31;;;;;;;18.83;7.78;;;18.20;99.90;;;;;;4882507;29;20545;-68
2023/04/21 12:55:57;;;;;;;15.15;6.65;;;;;;;;;;4882375;29;20131;-68
2023/04/21 12:58:23;;;;;;;14.05;6.65;;;18.20;99.90;;;;;;4903969;29;20105;-68
2023/04/21 13:00:49;;;;;;;12.18;6.47;;;;;;;;;;4899297;29;20048;-68
2023/04/21 13:03:15;;;;;;;14.45;6.00;;;;;;;;;;4889839;29;20067;-68
2023/04/21 13:05:40;;;;;;;13.50;6.32;;;20.30;99.90;;;;;;4896697;29;20127;-68
2023/04/21 13:08:06;;;;;;;14.90;6.05;;;19.90;99.90;;;;;;4870828;29;20440;-68
2023/04/21 13:10:32;;;;;;;12.73;5.15;;;18.50;99.90;;;;;;4884753;29;20136;-68
2023/04/21 13:12:58;;;;;;;15.68;5.63;;;;;;;;;;4877308;29;20067;-68
2023/04/21 13:15:24;;;;;;;11.65;5.45;;;19.70;99.90;;;;;;4882363;29;20056;-68
2023/04/21 13:17:50;;;;;;;15.13;5.55;;;19.90;99.90;;;;;;4894152;29;20055;-68
2023/04/21 13:20:17;;;;;;;13.88;5.88;;;19.40;99.90;;;;;;4917436;29;20047;-68
2023/04/21 13:22:44;;;;;;;11.70;5.30;;;;;;;;;;4866049;29;20044;-68
2023/04/21 13:25:09;;;;;;;15.80;5.40;;;18.50;99.90;;;;;;4882205;29;20044;-68
2023/04/21 13:27:38;;;;;;;10.15;5.15;;;;;;;;;;4882028;29;20068;-67
2023/04/21 13:30:09;;;;;;;7.93;5.45;;;18.50;99.90;;;;;;4900828;29;20051;-68
2023/04/21 13:32:36;;;;;;;18.23;5.93;;;18.50;99.90;;;;;;4883132;29;20049;-68
2023/04/21 13:35:09;;;;;;;11.23;5.65;;;19.70;99.90;;;;;;4882135;29;20048;-68
2023/04/21 13:37:39;;;;;;;18.92;6.03;;;18.60;99.90;;;;;;4904256;29;20188;-67
2023/04/21 13:40:08;;;;;;;10.90;5.70;;;19.10;99.90;;;;;;4900110;29;20048;-67
2023/04/21 13:42:35;;;;;;;10.27;5.75;;;18.90;99.90;;;;;;4883592;29;20434;-67
2023/04/21 13:45:04;;;;;;;10.55;5.45;;;18.20;99.90;;;;;;4898590;29;20044;-68
2023/04/21 13:47:31;;;;;;;10.73;5.18;;;19.10;99.90;;;;;;4914216;29;20115;-68